Time;durP1;ratioP1;P1;durP2;ratioP2;P2;SDS_P1;SDS_P2;PMS_P1;PMS_P2;Temp;Humidity;BMP_temperature;BMP_pressure;BME280_temperature;BME280_humidity;BME280_pressure;Samples;Min_cycle;Max_cycle;Signal;HPM_P1;HPM_P2
2021/08/04 00:01:48;;;;;;;;;;;;;;;;;;2138307;59;1597;-64
2021/08/04 00:04:13;;;;;;;;;;;;;;;;;;2137827;67;1652;-63
2021/08/04 00:06:39;;;;;;;;;;;;;;;;;;2137960;67;1488;-64
2021/08/04 00:09:04;;;;;;;;;;;;;;;;;;2137634;67;1548;-63
2021/08/04 00:11:29;;;;;;;;;;;;;;;;;;2137647;67;1940;-64
2021/08/04 00:13:54;;;;;;;;;;;;;;;;;;2137678;67;1604;-64
2021/08/04 00:16:20;;;;;;;;;;;;;;;;;;2138895;67;1806;-63
2021/08/04 00:18:45;;;;;;;;;;;;;;;;;;2138520;67;1749;-65
2021/08/04 00:21:10;;;;;;;;;;;;;;;;;;2139430;67;1498;-63
2021/08/04 00:23:35;;;;;;;;;;;;;;;;;;2137191;67;2134;-65
2021/08/04 00:26:01;;;;;;;;;;;;;;;;;;2137633;59;1795;-66
2021/08/04 00:28:26;;;;;;;;;;;;;;;;;;2137601;67;1669;-66
2021/08/04 00:30:51;;;;;;;;;;;;;;;;;;2138075;67;2012;-67
2021/08/04 00:33:16;;;;;;;;;;;;;;;;;;2137966;67;1604;-66
2021/08/04 00:35:42;;;;;;;;;;;;;;;;;;2137688;67;1497;-67
2021/08/04 00:38:10;;;;;;;;;;;;;;;;;;2137614;67;1569;-66
2021/08/04 00:40:36;;;;;;;;;;;;;;;;;;2137403;67;1631;-65
2021/08/04 00:43:01;;;;;;;;;;;;;;;;;;2138638;67;1517;-64
2021/08/04 00:45:26;;;;;;;;;;;;;;;;;;2137619;67;1380;-65
2021/08/04 00:47:51;;;;;;;;;;;;;;;;;;2138187;67;1583;-64
2021/08/04 00:50:16;;;;;;;;;;;;;;;;;;2137281;67;1992;-65
2021/08/04 00:52:43;;;;;;;;;;;;;;;;;;2138340;67;1526;-65
2021/08/04 00:55:08;;;;;;;;;;;;;;;;;;2137595;67;1545;-67
2021/08/04 00:57:34;;;;;;;;;;;;;;;;;;2137714;67;1508;-64
2021/08/04 00:59:59;;;;;;;;;;;;;;;;;;2137544;67;1466;-65
2021/08/04 01:02:28;;;;;;;;;;;;;;;;;;2138059;59;1490;-65
2021/08/04 01:04:55;;;;;;;;;;;;;;;;;;2137468;67;1622;-67
2021/08/04 01:07:30;;;;;;;;;;;;;;;;;;2137949;67;1329;-67
2021/08/04 01:10:00;;;;;;;;;;;;;;;;;;2137746;67;1931;-67
2021/08/04 01:12:30;;;;;;;;;;;;;;;;;;2138508;67;1488;-64
2021/08/04 01:15:00;;;;;;;;;;;;;;;;;;2137987;67;1509;-65
2021/08/04 01:17:25;;;;;;;;;;;;;;;;;;2139150;67;1404;-66
2021/08/04 01:19:58;;;;;;;;;;;;;;;;;;2139129;67;1504;-65
2021/08/04 01:22:34;;;;;;;;;;;;;;;;;;2138274;67;1481;-66
2021/08/04 01:25:19;;;;;;;;;;;;;;;;;;2138385;59;1498;-66
2021/08/04 01:27:47;;;;;;;;;;;;;;;;;;2137930;66;2136;-64
2021/08/04 01:30:13;;;;;;;;;;;;;;;;;;2138131;67;1925;-66
2021/08/04 01:32:38;;;;;;;;;;;;;;;;;;2139289;67;1494;-66
2021/08/04 01:35:03;;;;;;;;;;;;;;;;;;2138158;67;1254;-64
2021/08/04 01:37:30;;;;;;;;;;;;;;;;;;2139229;67;1580;-64
2021/08/04 01:39:56;;;;;;;;;;;;;;;;;;2138036;67;1567;-64
2021/08/04 01:42:21;;;;;;;;;;;;;;;;;;2139206;67;1488;-65
2021/08/04 01:44:47;;;;;;;;;;;;;;;;;;2138042;67;1391;-64
2021/08/04 01:47:13;;;;;;;;;;;;;;;;;;2138448;67;1514;-65
2021/08/04 01:49:40;;;;;;;;;;;;;;;;;;2137867;67;1619;-66
2021/08/04 01:52:05;;;;;;;;;;;;;;;;;;2138450;67;1992;-65
2021/08/04 01:54:31;;;;;;;;;;;;;;;;;;2138517;59;1541;-66
2021/08/04 01:56:56;;;;;;;;;;;;;;;;;;2138028;67;1640;-65
2021/08/04 01:59:22;;;;;;;;;;;;;;;;;;2138995;67;1524;-66
2021/08/04 02:01:47;;;;;;;;;;;;;;;;;;2137915;59;1444;-65
2021/08/04 02:04:12;;;;;;;;;;;;;;;;;;2139095;67;1643;-66
2021/08/04 02:06:40;;;;;;;;;;;;;;;;;;2137195;67;1491;-65
2021/08/04 02:09:24;;;;;;;;;;;;;;;;;;2138772;67;1659;-65
2021/08/04 02:12:00;;;;;;;;;;;;;;;;;;2137733;67;1944;-65
2021/08/04 02:14:28;;;;;;;;;;;;;;;;;;2138583;67;1546;-66
2021/08/04 02:17:02;;;;;;;;;;;;;;;;;;2138016;67;1511;-66
2021/08/04 02:19:32;;;;;;;;;;;;;;;;;;2139624;67;1571;-66
2021/08/04 02:22:05;;;;;;;;;;;;;;;;;;2136526;67;1291;-65
2021/08/04 02:24:32;;;;;;;;;;;;;;;;;;2138226;59;1477;-64
2021/08/04 02:26:59;;;;;;;;;;;;;;;;;;2137905;67;1342;-66
2021/08/04 02:29:24;;;;;;;;;;;;;;;;;;2138285;67;1548;-66
2021/08/04 02:31:49;;;;;;;;;;;;;;;;;;2137684;67;1925;-66
2021/08/04 02:34:15;;;;;;;;;;;;;;;;;;2138168;67;1480;-65
2021/08/04 02:36:40;;;;;;;;;;;;;;;;;;2137568;67;1304;-66
2021/08/04 02:39:05;;;;;;;;;;;;;;;;;;2138045;67;1583;-65
2021/08/04 02:41:31;;;;;;;;;;;;;;;;;;2137770;67;1569;-66
2021/08/04 02:43:57;;;;;;;;;;;;;;;;;;2139192;67;1559;-65
2021/08/04 02:46:23;;;;;;;;;;;;;;;;;;2138009;67;1667;-65
2021/08/04 02:48:48;;;;;;;;;;;;;;;;;;2137449;67;1564;-65
2021/08/04 02:51:14;;;;;;;;;;;;;;;;;;2137945;67;1931;-65
2021/08/04 02:53:39;;;;;;;;;;;;;;;;;;2138734;67;1504;-65
2021/08/04 02:56:05;;;;;;;;;;;;;;;;;;2137885;59;1507;-66
2021/08/04 02:58:36;;;;;;;;;;;;;;;;;;2139045;67;1460;-66
2021/08/04 03:01:01;;;;;;;;;;;;;;;;;;2136692;59;2027;-66
2021/08/04 03:03:27;;;;;;;;;;;;;;;;;;2138718;67;1329;-66
2021/08/04 03:05:52;;;;;;;;;;;;;;;;;;2137658;67;1692;-65
2021/08/04 03:08:17;;;;;;;;;;;;;;;;;;2138219;67;1492;-66
2021/08/04 03:10:42;;;;;;;;;;;;;;;;;;2137748;67;1933;-66
2021/08/04 03:13:07;;;;;;;;;;;;;;;;;;2137911;67;1558;-66
2021/08/04 03:15:33;;;;;;;;;;;;;;;;;;2138527;67;1499;-65
2021/08/04 03:17:58;;;;;;;;;;;;;;;;;;2138878;67;1810;-65
2021/08/04 03:20:23;;;;;;;;;;;;;;;;;;2139896;67;1646;-66
2021/08/04 03:22:49;;;;;;;;;;;;;;;;;;2137733;67;1511;-64
2021/08/04 03:25:16;;;;;;;;;;;;;;;;;;2138438;59;1398;-65
2021/08/04 03:27:42;;;;;;;;;;;;;;;;;;2137787;67;1393;-65
2021/08/04 03:30:07;;;;;;;;;;;;;;;;;;2138038;67;1989;-66
2021/08/04 03:32:32;;;;;;;;;;;;;;;;;;2137689;67;1596;-65
2021/08/04 03:34:58;;;;;;;;;;;;;;;;;;2137993;67;1544;-66
2021/08/04 03:37:23;;;;;;;;;;;;;;;;;;2137674;67;1337;-66
2021/08/04 03:39:48;;;;;;;;;;;;;;;;;;2137906;67;1546;-66
2021/08/04 03:42:16;;;;;;;;;;;;;;;;;;2137674;67;1473;-66
2021/08/04 03:44:41;;;;;;;;;;;;;;;;;;2137904;67;1462;-66
2021/08/04 03:47:06;;;;;;;;;;;;;;;;;;2137605;67;1685;-65
2021/08/04 03:49:31;;;;;;;;;;;;;;;;;;2137628;67;1718;-65
2021/08/04 03:51:56;;;;;;;;;;;;;;;;;;2137617;67;1996;-66
2021/08/04 03:54:22;;;;;;;;;;;;;;;;;;2138639;59;1485;-66
2021/08/04 03:56:47;;;;;;;;;;;;;;;;;;2137988;67;1504;-66
2021/08/04 03:59:12;;;;;;;;;;;;;;;;;;2138181;67;1526;-66
2021/08/04 04:01:37;;;;;;;;;;;;;;;;;;2138495;59;1533;-68
2021/08/04 04:04:02;;;;;;;;;;;;;;;;;;2137784;67;1596;-66
2021/08/04 04:06:27;;;;;;;;;;;;;;;;;;2138695;67;1500;-65
2021/08/04 04:08:53;;;;;;;;;;;;;;;;;;2137532;67;1529;-65
2021/08/04 04:11:18;;;;;;;;;;;;;;;;;;2138051;67;1974;-66
2021/08/04 04:13:43;;;;;;;;;;;;;;;;;;2137166;59;2107;-66
2021/08/04 04:16:08;;;;;;;;;;;;;;;;;;2138098;59;3278;-65
2021/08/04 04:18:33;;;;;;;;;;;;;;;;;;2137608;59;1997;-66
2021/08/04 04:20:59;;;;;;;;;;;;;;;;;;2137930;59;1723;-65
2021/08/04 04:23:24;;;;;;;;;;;;;;;;;;2137395;67;1599;-66
2021/08/04 04:25:49;;;;;;;;;;;;;;;;;;2138299;67;1553;-65
2021/08/04 04:28:14;;;;;;;;;;;;;;;;;;2137470;67;1495;-66
2021/08/04 04:30:39;;;;;;;;;;;;;;;;;;2138201;67;1927;-67
2021/08/04 04:33:04;;;;;;;;;;;;;;;;;;2137815;59;1641;-67
2021/08/04 04:35:29;;;;;;;;;;;;;;;;;;2137937;67;1277;-68
2021/08/04 04:37:55;;;;;;;;;;;;;;;;;;2137653;67;1464;-67
2021/08/04 04:40:20;;;;;;;;;;;;;;;;;;2137990;67;1498;-68
2021/08/04 04:42:45;;;;;;;;;;;;;;;;;;2137244;67;1588;-65
2021/08/04 04:45:11;;;;;;;;;;;;;;;;;;2137768;67;1502;-65
2021/08/04 04:47:36;;;;;;;;;;;;;;;;;;2137292;67;1605;-65
2021/08/04 04:50:01;;;;;;;;;;;;;;;;;;2137626;59;1806;-66
2021/08/04 04:52:26;;;;;;;;;;;;;;;;;;2137307;67;1999;-66
2021/08/04 04:54:52;;;;;;;;;;;;;;;;;;2137703;59;1494;-66
2021/08/04 04:57:17;;;;;;;;;;;;;;;;;;2137540;67;1505;-67
2021/08/04 04:59:42;;;;;;;;;;;;;;;;;;2137270;67;1334;-67
2021/08/04 05:02:07;;;;;;;;;;;;;;;;;;2137566;59;1927;-66
2021/08/04 05:04:32;;;;;;;;;;;;;;;;;;2137479;67;1478;-66
2021/08/04 05:06:57;;;;;;;;;;;;;;;;;;2137398;67;1532;-66
2021/08/04 05:09:23;;;;;;;;;;;;;;;;;;2137460;67;1466;-67
2021/08/04 05:11:48;;;;;;;;;;;;;;;;;;2138574;67;1943;-67
2021/08/04 05:14:13;;;;;;;;;;;;;;;;;;2137606;67;1484;-66
2021/08/04 05:16:38;;;;;;;;;;;;;;;;;;2138409;67;1852;-66
2021/08/04 05:19:03;;;;;;;;;;;;;;;;;;2138713;67;1646;-66
2021/08/04 05:21:29;;;;;;;;;;;;;;;;;;2138698;67;1542;-66
2021/08/04 05:23:54;;;;;;;;;;;;;;;;;;2137004;59;1586;-67
2021/08/04 05:26:19;;;;;;;;;;;;;;;;;;2138419;67;1663;-66
2021/08/04 05:28:44;;;;;;;;;;;;;;;;;;2137254;67;1511;-67
2021/08/04 05:31:09;;;;;;;;;;;;;;;;;;2138482;67;1995;-66
2021/08/04 05:33:34;;;;;;;;;;;;;;;;;;2137432;67;1602;-66
2021/08/04 05:36:00;;;;;;;;;;;;;;;;;;2138079;67;1519;-67
2021/08/04 05:38:25;;;;;;;;;;;;;;;;;;2137647;67;1489;-67
2021/08/04 05:40:50;;;;;;;;;;;;;;;;;;2137839;67;1492;-67
2021/08/04 05:43:15;;;;;;;;;;;;;;;;;;2137696;67;1537;-66
2021/08/04 05:45:40;;;;;;;;;;;;;;;;;;2137387;67;1489;-67
2021/08/04 05:48:06;;;;;;;;;;;;;;;;;;2138064;67;1616;-66
2021/08/04 05:50:31;;;;;;;;;;;;;;;;;;2137283;59;1975;-67
2021/08/04 05:52:56;;;;;;;;;;;;;;;;;;2137138;59;1582;-67
2021/08/04 05:55:21;;;;;;;;;;;;;;;;;;2137298;67;1528;-67
2021/08/04 05:57:48;;;;;;;;;;;;;;;;;;2138096;67;1480;-67
2021/08/04 06:00:13;;;;;;;;;;;;;;;;;;2138023;67;1491;-66
2021/08/04 06:02:38;;;;;;;;;;;;;;;;;;2138749;59;1417;-66
2021/08/04 06:05:04;;;;;;;;;;;;;;;;;;2137970;67;1571;-66
2021/08/04 06:07:29;;;;;;;;;;;;;;;;;;2138265;67;1538;-67
2021/08/04 06:09:54;;;;;;;;;;;;;;;;;;2137699;67;1533;-67
2021/08/04 06:12:19;;;;;;;;;;;;;;;;;;2138089;67;1939;-67
2021/08/04 06:14:45;;;;;;;;;;;;;;;;;;2137819;67;1661;-67
2021/08/04 06:17:10;;;;;;;;;;;;;;;;;;2138875;67;1582;-67
2021/08/04 06:19:35;;;;;;;;;;;;;;;;;;2138272;67;1733;-67
2021/08/04 06:22:00;;;;;;;;;;;;;;;;;;2137830;67;1584;-67
2021/08/04 06:24:25;;;;;;;;;;;;;;;;;;2138301;59;1594;-67
2021/08/04 06:26:51;;;;;;;;;;;;;;;;;;2138572;67;1286;-67
2021/08/04 06:29:16;;;;;;;;;;;;;;;;;;2138628;67;1430;-66
2021/08/04 06:31:41;;;;;;;;;;;;;;;;;;2138312;67;1922;-67
2021/08/04 06:34:06;;;;;;;;;;;;;;;;;;2138757;67;1497;-67
2021/08/04 06:36:31;;;;;;;;;;;;;;;;;;2138061;67;1569;-67
2021/08/04 06:38:57;;;;;;;;;;;;;;;;;;2138917;59;1567;-67
2021/08/04 06:41:22;;;;;;;;;;;;;;;;;;2138018;67;1470;-67
2021/08/04 06:43:47;;;;;;;;;;;;;;;;;;2138914;67;1560;-67
2021/08/04 06:46:13;;;;;;;;;;;;;;;;;;2137857;67;1466;-67
2021/08/04 06:48:39;;;;;;;;;;;;;;;;;;2138055;59;1494;-67
2021/08/04 06:51:04;;;;;;;;;;;;;;;;;;2137675;67;1972;-67
2021/08/04 06:53:29;;;;;;;;;;;;;;;;;;2138877;67;1376;-67
2021/08/04 06:55:54;;;;;;;;;;;;;;;;;;2137884;59;1595;-67
2021/08/04 06:58:19;;;;;;;;;;;;;;;;;;2138679;59;1295;-68
2021/08/04 07:00:44;;;;;;;;;;;;;;;;;;2138306;59;1589;-67
2021/08/04 07:03:10;;;;;;;;;;;;;;;;;;2138422;67;1490;-67
2021/08/04 07:05:35;;;;;;;;;;;;;;;;;;2137832;67;1432;-67
2021/08/04 07:08:00;;;;;;;;;;;;;;;;;;2138327;67;1494;-67
2021/08/04 07:10:25;;;;;;;;;;;;;;;;;;2137661;67;1944;-67
2021/08/04 07:12:51;;;;;;;;;;;;;;;;;;2138168;67;1606;-67
2021/08/04 07:15:16;;;;;;;;;;;;;;;;;;2137553;67;1396;-67
2021/08/04 07:17:45;;;;;;;;;;;;;;;;;;2139357;67;1600;-67
2021/08/04 07:20:11;;;;;;;;;;;;;;;;;;2136886;67;1473;-68
2021/08/04 07:22:36;;;;;;;;;;;;;;;;;;2137590;67;1557;-66
2021/08/04 07:25:02;;;;;;;;;;;;;;;;;;2138165;59;1503;-68
2021/08/04 07:27:27;;;;;;;;;;;;;;;;;;2137833;67;1563;-67
2021/08/04 07:29:52;;;;;;;;;;;;;;;;;;2137806;59;1570;-67
2021/08/04 07:32:17;;;;;;;;;;;;;;;;;;2137640;67;1980;-67
2021/08/04 07:34:42;;;;;;;;;;;;;;;;;;2136853;67;2341;-68
2021/08/04 07:37:08;;;;;;;;;;;;;;;;;;2137290;67;1747;-68
2021/08/04 07:39:33;;;;;;;;;;;;;;;;;;2137832;67;1466;-67
2021/08/04 07:41:59;;;;;;;;;;;;;;;;;;2137923;67;1685;-67
2021/08/04 07:44:24;;;;;;;;;;;;;;;;;;2136231;59;2289;-68
2021/08/04 07:46:50;;;;;;;;;;;;;;;;;;2137516;64;1849;-67
2021/08/04 07:49:15;;;;;;;;;;;;;;;;;;2138118;67;1728;-68
2021/08/04 07:51:40;;;;;;;;;;;;;;;;;;2137615;67;1984;-68
2021/08/04 07:54:05;;;;;;;;;;;;;;;;;;2139171;67;1562;-68
2021/08/04 07:56:30;;;;;;;;;;;;;;;;;;2137124;59;2179;-68
2021/08/04 07:59:02;;;;;;;;;;;;;;;;;;2137268;59;1767;-68
2021/08/04 08:01:27;;;;;;;;;;;;;;;;;;2138293;59;1863;-68
2021/08/04 08:03:52;;;;;;;;;;;;;;;;;;2138630;67;1399;-65
2021/08/04 08:06:17;;;;;;;;;;;;;;;;;;2137828;67;1535;-66
2021/08/04 08:08:42;;;;;;;;;;;;;;;;;;2138071;67;1592;-66
2021/08/04 08:11:08;;;;;;;;;;;;;;;;;;2138109;67;1924;-66
2021/08/04 08:13:33;;;;;;;;;;;;;;;;;;2137300;67;1816;-65
2021/08/04 08:15:58;;;;;;;;;;;;;;;;;;2136968;67;1830;-65
2021/08/04 08:18:23;;;;;;;;;;;;;;;;;;2135208;59;2273;-66
2021/08/04 08:20:49;;;;;;;;;;;;;;;;;;2136660;67;2020;-65
2021/08/04 08:23:14;;;;;;;;;;;;;;;;;;2136932;59;2183;-65
2021/08/04 08:25:39;;;;;;;;;;;;;;;;;;2137653;59;1772;-66
2021/08/04 08:28:05;;;;;;;;;;;;;;;;;;2137295;67;1766;-65
2021/08/04 08:30:30;;;;;;;;;;;;;;;;;;2137443;67;1938;-66
2021/08/04 08:32:55;;;;;;;;;;;;;;;;;;2137721;67;1560;-66
2021/08/04 08:35:21;;;;;;;;;;;;;;;;;;2137735;67;1567;-68
2021/08/04 08:37:46;;;;;;;;;;;;;;;;;;2137744;67;1331;-68
2021/08/04 08:40:12;;;;;;;;;;;;;;;;;;2137919;67;1812;-68
2021/08/04 08:42:38;;;;;;;;;;;;;;;;;;2137656;67;1789;-67
2021/08/04 08:45:04;;;;;;;;;;;;;;;;;;2135281;59;3227;-65
2021/08/04 08:47:29;;;;;;;;;;;;;;;;;;2136926;59;1854;-66
2021/08/04 08:49:55;;;;;;;;;;;;;;;;;;2137458;67;1786;-66
2021/08/04 08:52:21;;;;;;;;;;;;;;;;;;2137454;67;1924;-66
2021/08/04 08:54:46;;;;;;;;;;;;;;;;;;2138615;59;1488;-65
2021/08/04 08:57:11;;;;;;;;;;;;;;;;;;2137714;67;1699;-64
2021/08/04 08:59:36;;;;;;;;;;;;;;;;;;2138582;67;1564;-65
2021/08/04 09:02:02;;;;;;;;;;;;;;;;;;2137497;59;1793;-65
2021/08/04 09:04:28;;;;;;;;;;;;;;;;;;2138264;67;1873;-65
2021/08/04 09:06:57;;;;;;;;;;;;;;;;;;2137404;67;1476;-66
2021/08/04 09:09:23;;;;;;;;;;;;;;;;;;2138331;67;1567;-66
2021/08/04 09:11:56;;;;;;;;;;;;;;;;;;2137313;67;2287;-65
2021/08/04 09:14:25;;;;;;;;;;;;;;;;;;2137704;67;1965;-66
2021/08/04 09:17:05;;;;;;;;;;;;;;;;;;2139148;67;1681;-65
2021/08/04 09:19:31;;;;;;;;;;;;;;;;;;2139756;67;1484;-65
2021/08/04 09:22:23;;;;;;;;;;;;;;;;;;2137023;67;2332;-66
2021/08/04 09:24:57;;;;;;;;;;;;;;;;;;2137446;59;2050;-65
2021/08/04 09:27:38;;;;;;;;;;;;;;;;;;2136709;67;2370;-66
2021/08/04 09:30:04;;;;;;;;;;;;;;;;;;2137631;60;1738;-66
2021/08/04 09:32:31;;;;;;;;;;;;;;;;;;2137826;67;2340;-65
2021/08/04 09:34:56;;;;;;;;;;;;;;;;;;2132071;59;2405;-64
2021/08/04 09:37:22;;;;;;;;;;;;;;;;;;2131975;59;2371;-66
2021/08/04 09:39:53;;;;;;;;;;;;;;;;;;2137099;59;2345;-66
2021/08/04 09:42:19;;;;;;;;;;;;;;;;;;2137599;67;1261;-66
2021/08/04 09:44:51;;;;;;;;;;;;;;;;;;2137997;67;1351;-66
2021/08/04 09:47:17;;;;;;;;;;;;;;;;;;2137387;67;1243;-66
2021/08/04 09:49:52;;;;;;;;;;;;;;;;;;2138188;67;1446;-66
2021/08/04 09:52:18;;;;;;;;;;;;;;;;;;2138068;59;2041;-66
2021/08/04 09:54:43;;;;;;;;;;;;;;;;;;2138361;59;1549;-67
2021/08/04 09:57:09;;;;;;;;;;;;;;;;;;2138218;67;1468;-66
2021/08/04 09:59:35;;;;;;;;;;;;;;;;;;2138292;67;1624;-67
2021/08/04 10:02:02;;;;;;;;;;;;;;;;;;2138597;59;1468;-67
2021/08/04 10:04:27;;;;;;;;;;;;;;;;;;2137647;67;1977;-66
2021/08/04 10:07:02;;;;;;;;;;;;;;;;;;2139434;59;1512;-67
2021/08/04 10:09:28;;;;;;;;;;;;;;;;;;2138132;67;1463;-67
2021/08/04 10:11:54;;;;;;;;;;;;;;;;;;2137929;59;2200;-67
2021/08/04 10:14:20;;;;;;;;;;;;;;;;;;2135590;67;1935;-68
2021/08/04 10:16:46;;;;;;;;;;;;;;;;;;2143413;59;2862;-69
2021/08/04 10:19:12;;;;;;;;;;;;;;;;;;2140689;59;2034;-68
2021/08/04 10:21:40;;;;;;;;;;;;;;;;;;2140186;59;2272;-66
2021/08/04 10:24:06;;;;;;;;;;;;;;;;;;2139467;59;1583;-69
2021/08/04 10:26:33;;;;;;;;;;;;;;;;;;2140246;67;2678;-69
2021/08/04 10:28:59;;;;;;;;;;;;;;;;;;2139493;59;2120;-70
2021/08/04 10:31:25;;;;;;;;;;;;;;;;;;2137124;67;3098;-69
2021/08/04 10:33:51;;;;;;;;;;;;;;;;;;2139226;59;3144;-68
2021/08/04 10:36:18;;;;;;;;;;;;;;;;;;2136557;59;2162;-68
2021/08/04 10:38:55;;;;;;;;;;;;;;;;;;2137802;67;1883;-69
2021/08/04 10:41:22;;;;;;;;;;;;;;;;;;2141300;67;1503;-69
2021/08/04 10:43:54;;;;;;;;;;;;;;;;;;2141157;67;1523;-69
2021/08/04 10:46:29;;;;;;;;;;;;;;;;;;2141536;67;1513;-69
2021/08/04 10:48:55;;;;;;;;;;;;;;;;;;2140875;67;1708;-69
2021/08/04 10:51:20;;;;;;;;;;;;;;;;;;2139983;59;2415;-70
2021/08/04 10:54:01;;;;;;;;;;;;;;;;;;2140390;62;2282;-69
2021/08/04 10:56:32;;;;;;;;;;;;;;;;;;2139427;59;1835;-69
2021/08/04 10:59:09;;;;;;;;;;;;;;;;;;2140855;67;1460;-69
2021/08/04 11:01:39;;;;;;;;;;;;;;;;;;2140851;59;1451;-69
2021/08/04 11:04:05;;;;;;;;;;;;;;;;;;2141162;59;1662;-69
2021/08/04 11:06:30;;;;;;;;;;;;;;;;;;2136570;67;1980;-69
2021/08/04 11:09:14;;;;;;;;;;;;;;;;;;2136326;67;1429;-70
2021/08/04 11:11:52;;;;;;;;;;;;;;;;;;2139569;59;1982;-69
2021/08/04 11:14:36;;;;;;;;;;;;;;;;;;2141288;67;1669;-68
2021/08/04 11:17:02;;;;;;;;;;;;;;;;;;2140030;59;1926;-68
2021/08/04 11:19:36;;;;;;;;;;;;;;;;;;2140269;67;2216;-69
2021/08/04 11:22:16;;;;;;;;;;;;;;;;;;2139620;67;1697;-68
2021/08/04 11:24:54;;;;;;;;;;;;;;;;;;2140438;59;1660;-69
2021/08/04 11:27:20;;;;;;;;;;;;;;;;;;2140687;67;2300;-70
2021/08/04 11:29:46;;;;;;;;;;;;;;;;;;2140333;59;1692;-70
2021/08/04 11:32:22;;;;;;;;;;;;;;;;;;2140711;59;2522;-70
2021/08/04 11:34:47;;;;;;;;;;;;;;;;;;2135857;67;3417;-70
2021/08/04 11:37:13;;;;;;;;;;;;;;;;;;2139918;67;2160;-70
2021/08/04 11:39:51;;;;;;;;;;;;;;;;;;2140486;59;1912;-70
2021/08/04 11:42:16;;;;;;;;;;;;;;;;;;2141157;59;1780;-69
2021/08/04 11:44:43;;;;;;;;;;;;;;;;;;2140721;59;1768;-69
2021/08/04 11:47:10;;;;;;;;;;;;;;;;;;2140549;67;1695;-69
2021/08/04 11:49:37;;;;;;;;;;;;;;;;;;2140407;67;1837;-69
2021/08/04 11:52:02;;;;;;;;;;;;;;;;;;2141257;59;1944;-69
2021/08/04 11:54:29;;;;;;;;;;;;;;;;;;2141185;67;1609;-69
2021/08/04 11:56:54;;;;;;;;;;;;;;;;;;2140750;59;1804;-69
2021/08/04 11:59:19;;;;;;;;;;;;;;;;;;2140788;59;1694;-69
2021/08/04 12:01:58;;;;;;;;;;;;;;;;;;2139688;59;2187;-68
2021/08/04 12:04:23;;;;;;;;;;;;;;;;;;2139480;59;1736;-69
2021/08/04 12:06:56;;;;;;;;;;;;;;;;;;2139706;59;1738;-69
2021/08/04 12:09:23;;;;;;;;;;;;;;;;;;2140381;59;1709;-69
2021/08/04 12:11:48;;;;;;;;;;;;;;;;;;2140094;59;1963;-69
2021/08/04 12:14:15;;;;;;;;;;;;;;;;;;2140748;67;1731;-69
2021/08/04 12:16:41;;;;;;;;;;;;;;;;;;2139808;59;2531;-69
2021/08/04 12:19:07;;;;;;;;;;;;;;;;;;2139984;59;1812;-69
2021/08/04 12:21:32;;;;;;;;;;;;;;;;;;2140698;67;1734;-69
2021/08/04 12:23:58;;;;;;;;;;;;;;;;;;2140729;59;1933;-69
2021/08/04 12:26:23;;;;;;;;;;;;;;;;;;2140277;59;1798;-69
2021/08/04 12:28:48;;;;;;;;;;;;;;;;;;2140171;67;2184;-69
2021/08/04 12:31:14;;;;;;;;;;;;;;;;;;2139421;67;1998;-69
2021/08/04 12:33:46;;;;;;;;;;;;;;;;;;2139344;59;3189;-69
2021/08/04 12:36:56;;;;;;;;;;;;;;;;;;2139248;59;2889;-69
2021/08/04 12:38:57;;;;;;;;;;;;;;;;;;2137093;67;1842;-69
2021/08/04 12:41:24;;;;;;;;;;;;;;;;;;2140727;59;1776;-69
2021/08/04 12:43:54;;;;;;;;;;;;;;;;;;2140273;67;2685;-69
2021/08/04 12:46:24;;;;;;;;;;;;;;;;;;2139518;59;2243;-69
2021/08/04 12:48:49;;;;;;;;;;;;;;;;;;2139261;59;2245;-69
2021/08/04 12:51:20;;;;;;;;;;;;;;;;;;2134770;59;2802;-69
2021/08/04 12:54:02;;;;;;;;;;;;;;;;;;2135530;59;1977;-70
2021/08/04 12:56:36;;;;;;;;;;;;;;;;;;2139379;59;1832;-70
2021/08/04 12:59:05;;;;;;;;;;;;;;;;;;2137923;67;1751;-70
2021/08/04 13:01:35;;;;;;;;;;;;;;;;;;2140137;59;1999;-69
2021/08/04 13:04:18;;;;;;;;;;;;;;;;;;2139251;59;2138;-69
2021/08/04 13:06:51;;;;;;;;;;;;;;;;;;2140371;67;1797;-70
2021/08/04 13:09:17;;;;;;;;;;;;;;;;;;2139764;67;2006;-70
2021/08/04 13:11:42;;;;;;;;;;;;;;;;;;2140819;67;1940;-69
2021/08/04 13:14:09;;;;;;;;;;;;;;;;;;2140489;59;1872;-71
2021/08/04 13:16:35;;;;;;;;;;;;;;;;;;2140734;59;1678;-70
2021/08/04 13:19:01;;;;;;;;;;;;;;;;;;2140479;67;1818;-69
2021/08/04 13:21:26;;;;;;;;;;;;;;;;;;2140067;59;2058;-71
2021/08/04 13:23:51;;;;;;;;;;;;;;;;;;2140807;59;1681;-71
2021/08/04 13:26:18;;;;;;;;;;;;;;;;;;2141098;59;1675;-70
2021/08/04 13:28:44;;;;;;;;;;;;;;;;;;2141178;59;2108;-71
2021/08/04 13:31:19;;;;;;;;;;;;;;;;;;2139848;59;1935;-69
2021/08/04 13:33:46;;;;;;;;;;;;;;;;;;2140104;59;2643;-69
2021/08/04 13:36:12;;;;;;;;;;;;;;;;;;2137885;59;3389;-69
2021/08/04 13:38:37;;;;;;;;;;;;;;;;;;2140226;59;1730;-68
2021/08/04 13:41:02;;;;;;;;;;;;;;;;;;2136616;59;1943;-67
2021/08/04 13:43:28;;;;;;;;;;;;;;;;;;2140691;59;2093;-68
2021/08/04 13:45:53;;;;;;;;;;;;;;;;;;2140693;59;2022;-67
2021/08/04 13:48:18;;;;;;;;;;;;;;;;;;2140989;59;1851;-66
2021/08/04 13:50:44;;;;;;;;;;;;;;;;;;2140300;59;1937;-66
2021/08/04 13:53:10;;;;;;;;;;;;;;;;;;2140194;67;1735;-68
2021/08/04 13:55:36;;;;;;;;;;;;;;;;;;2139126;59;2016;-67
2021/08/04 13:58:02;;;;;;;;;;;;;;;;;;2140996;59;1894;-67
2021/08/04 14:00:31;;;;;;;;;;;;;;;;;;2141098;59;1914;-68
2021/08/04 14:02:57;;;;;;;;;;;;;;;;;;2139758;59;1831;-67
2021/08/04 14:05:22;;;;;;;;;;;;;;;;;;2140023;67;2189;-68
2021/08/04 14:07:48;;;;;;;;;;;;;;;;;;2139391;59;2362;-67
2021/08/04 14:10:16;;;;;;;;;;;;;;;;;;2140544;67;2068;-69
2021/08/04 14:12:42;;;;;;;;;;;;;;;;;;2139991;59;2068;-68
2021/08/04 14:15:09;;;;;;;;;;;;;;;;;;2136644;67;1922;-68
2021/08/04 14:17:34;;;;;;;;;;;;;;;;;;2139712;59;1707;-69
2021/08/04 14:20:00;;;;;;;;;;;;;;;;;;2139642;59;1782;-69
2021/08/04 14:22:25;;;;;;;;;;;;;;;;;;2139389;59;2415;-67
2021/08/04 14:24:50;;;;;;;;;;;;;;;;;;2140232;59;2086;-68
2021/08/04 14:27:16;;;;;;;;;;;;;;;;;;2139701;59;2005;-68
2021/08/04 14:29:41;;;;;;;;;;;;;;;;;;2139948;67;1948;-67
2021/08/04 14:32:07;;;;;;;;;;;;;;;;;;2140303;59;1923;-67
2021/08/04 14:34:32;;;;;;;;;;;;;;;;;;2139874;59;1750;-68
2021/08/04 14:36:59;;;;;;;;;;;;;;;;;;2138021;67;3372;-67
2021/08/04 14:39:24;;;;;;;;;;;;;;;;;;2140424;67;1614;-67
2021/08/04 14:41:49;;;;;;;;;;;;;;;;;;2139516;59;1996;-67
2021/08/04 14:44:15;;;;;;;;;;;;;;;;;;2139697;67;2045;-68
2021/08/04 14:46:40;;;;;;;;;;;;;;;;;;2139126;59;2259;-67
2021/08/04 14:49:05;;;;;;;;;;;;;;;;;;2139831;67;1709;-67
2021/08/04 14:51:31;;;;;;;;;;;;;;;;;;2140471;67;1929;-69
2021/08/04 14:53:56;;;;;;;;;;;;;;;;;;2140553;67;1642;-67
2021/08/04 14:56:22;;;;;;;;;;;;;;;;;;2140460;59;2251;-68
2021/08/04 14:58:47;;;;;;;;;;;;;;;;;;2140584;67;1607;-68
2021/08/04 15:01:12;;;;;;;;;;;;;;;;;;2139527;59;2046;-67
2021/08/04 15:03:37;;;;;;;;;;;;;;;;;;2140104;67;1639;-68
2021/08/04 15:06:03;;;;;;;;;;;;;;;;;;2140406;59;1703;-68
2021/08/04 15:08:29;;;;;;;;;;;;;;;;;;2141003;59;1571;-68
2021/08/04 15:10:57;;;;;;;;;;;;;;;;;;2139772;59;1930;-68
2021/08/04 15:13:22;;;;;;;;;;;;;;;;;;2140287;67;1891;-68
2021/08/04 15:15:48;;;;;;;;;;;;;;;;;;2140249;59;1872;-69
2021/08/04 15:18:13;;;;;;;;;;;;;;;;;;2140747;59;2051;-68
2021/08/04 15:20:38;;;;;;;;;;;;;;;;;;2141087;67;1931;-68
2021/08/04 15:23:03;;;;;;;;;;;;;;;;;;2140653;67;1514;-67
2021/08/04 15:25:29;;;;;;;;;;;;;;;;;;2140639;59;1501;-67
2021/08/04 15:27:54;;;;;;;;;;;;;;;;;;2140806;67;1712;-68
2021/08/04 15:30:19;;;;;;;;;;;;;;;;;;2141108;59;1728;-67
2021/08/04 15:32:44;;;;;;;;;;;;;;;;;;2140747;67;2145;-68
2021/08/04 15:35:10;;;;;;;;;;;;;;;;;;2140975;67;1565;-67
2021/08/04 15:37:36;;;;;;;;;;;;;;;;;;2138284;59;3076;-67
2021/08/04 15:40:01;;;;;;;;;;;;;;;;;;2139938;67;3696;-68
2021/08/04 15:42:26;;;;;;;;;;;;;;;;;;2139253;67;1981;-68
2021/08/04 15:44:51;;;;;;;;;;;;;;;;;;2140231;59;1930;-68
2021/08/04 15:47:17;;;;;;;;;;;;;;;;;;2139677;67;1734;-68
2021/08/04 15:49:42;;;;;;;;;;;;;;;;;;2140583;67;1679;-67
2021/08/04 15:52:08;;;;;;;;;;;;;;;;;;2137390;67;1941;-68
2021/08/04 15:54:33;;;;;;;;;;;;;;;;;;2140452;67;2001;-69
2021/08/04 15:56:58;;;;;;;;;;;;;;;;;;2139930;67;1351;-67
2021/08/04 15:59:23;;;;;;;;;;;;;;;;;;2139634;60;1835;-69
2021/08/04 16:01:51;;;;;;;;;;;;;;;;;;2141240;59;1508;-67
2021/08/04 16:04:16;;;;;;;;;;;;;;;;;;2139857;67;1948;-67
2021/08/04 16:06:41;;;;;;;;;;;;;;;;;;2140628;59;1766;-68
2021/08/04 16:09:07;;;;;;;;;;;;;;;;;;2135811;59;1813;-67
2021/08/04 16:11:32;;;;;;;;;;;;;;;;;;2140800;67;1931;-69
2021/08/04 16:13:57;;;;;;;;;;;;;;;;;;2138779;67;1848;-69
2021/08/04 16:16:23;;;;;;;;;;;;;;;;;;2139815;59;2094;-67
2021/08/04 16:18:48;;;;;;;;;;;;;;;;;;2139672;59;1863;-67
2021/08/04 16:21:13;;;;;;;;;;;;;;;;;;2139526;67;2238;-68
2021/08/04 16:23:38;;;;;;;;;;;;;;;;;;2139572;59;1846;-66
2021/08/04 16:26:04;;;;;;;;;;;;;;;;;;2140472;59;1663;-67
2021/08/04 16:28:30;;;;;;;;;;;;;;;;;;2140267;59;1598;-68
2021/08/04 16:30:55;;;;;;;;;;;;;;;;;;2139485;59;2307;-66
2021/08/04 16:33:21;;;;;;;;;;;;;;;;;;2139566;67;1780;-67
2021/08/04 16:35:46;;;;;;;;;;;;;;;;;;2140182;67;1748;-67
2021/08/04 16:38:11;;;;;;;;;;;;;;;;;;2139402;59;3114;-67
2021/08/04 16:40:36;;;;;;;;;;;;;;;;;;2139391;67;3617;-66
2021/08/04 16:43:01;;;;;;;;;;;;;;;;;;2139398;59;1596;-68
2021/08/04 16:45:27;;;;;;;;;;;;;;;;;;2140575;59;1748;-66
2021/08/04 16:47:52;;;;;;;;;;;;;;;;;;2139704;67;2226;-68
2021/08/04 16:50:19;;;;;;;;;;;;;;;;;;2135448;59;2258;-67
2021/08/04 16:52:44;;;;;;;;;;;;;;;;;;2138902;59;2171;-66
2021/08/04 16:55:09;;;;;;;;;;;;;;;;;;2137997;67;2363;-66
2021/08/04 16:57:37;;;;;;;;;;;;;;;;;;2139765;59;1903;-68
2021/08/04 17:00:04;;;;;;;;;;;;;;;;;;2140308;67;1904;-67